This is the latest recevied weather packets stored in our database for station/object GOLDWX. If no packets are shown the sender has not sent any weather packets the latest 1 day(s).
| Time | Temp. | Humidity | Pressure | Rain* | Wind** | Luminosity | Snow |
|---|---|---|---|---|---|---|---|
| 1778092357 | 22.78° C | 24% | 1018.3 hPa | 0 mm | - | - | - |
| 1778091154 | 21.67° C | 26% | 1018.5 hPa | 0 mm | - | - | - |
| 1778090552 | 21.67° C | 27% | 1018.4 hPa | 0 mm | - | - | - |
| 1778088747 | 21.11° C | 29% | 1018.2 hPa | 0 mm | - | - | - |
| 1778086942 | 20° C | 30% | 1018.1 hPa | 0 mm | - | - | - |
| 1778086643 | 20° C | 30% | 1018.1 hPa | 0 mm | - | - | - |
| 1778085137 | 19.44° C | 31% | 1017.9 hPa | 0 mm | - | - | - |
| 1778084836 | 19.44° C | 32% | 1017.9 hPa | 0 mm | - | - | - |
| 1778083332 | 18.89° C | 35% | 1017.9 hPa | 0 mm | - | - | - |
| 1778083031 | 18.89° C | 37% | 1017.8 hPa | 0 mm | - | - | - |
| 1778081227 | 17.22° C | 40% | 1017.7 hPa | 0 mm | - | - | - |
| 1778080625 | 16.67° C | 42% | 1017.7 hPa | 0 mm | - | - | - |
| 1778079421 | 15.56° C | 47% | 1017.6 hPa | 0 mm | - | - | - |
| 1778077617 | 13.33° C | 51% | 1017.5 hPa | 0 mm | - | - | - |
| 1778077016 | 12.78° C | 55% | 1017.3 hPa | 0 mm | - | - | - |
| 1778076716 | 12.22° C | 57% | 1017.4 hPa | 0 mm | - | - | - |
| 1778074003 | 8.89° C | 63% | 1017.1 hPa | 0 mm | - | - | - |
| 1778072198 | 9.44° C | 59% | 1016.6 hPa | 0 mm | - | - | - |
| 1778068587 | 8.89° C | 62% | 1015.9 hPa | 0 mm | - | - | - |
| 1778067985 | 8.89° C | 62% | 1015.8 hPa | 0 mm | - | - | - |
| 1778066782 | 8.89° C | 61% | 1015.7 hPa | 0 mm | - | - | - |
| 1778066180 | 9.44° C | 60% | 1015.7 hPa | 0 mm | - | - | - |
| 1778064977 | 9.44° C | 60% | 1015.6 hPa | 0 mm | - | - | - |
| 1778064375 | 8.89° C | 62% | 1015.5 hPa | 0 mm | - | - | - |
| 1778062570 | 10° C | 60% | 1015.2 hPa | 0 mm | - | - | - |
* Rain since midnight (hover to see other rain measurements)
** Current wind speed in m/s (hover to see current wind gust speed)